Weather observations for the past three days for
Sulphur Springs, Sulphur Springs Municipal Airport
Imperial (Metric)
Date Time (cdt) Wind (mph) Vis. (mi.) Weather Sky Cond. Temperature (ºF) Relative Humidity Wind Chill (°F) Heat Index (°F) Pressure Precipitation (in)
Air Dwpt 6 hour altimeter (in) sea level (mb) 1 hr 3 hr 6 hr
Max. Min.
02 17:15 N 6 10.00 Partly Cloudy SCT075 74.3 43.2 33% 30.11 0.0
02 16:55 NW 7 10.00 Fair CLR 73.2 44.4 36% 30.12 0.0
02 16:35 N 7 10.00 Fair CLR 74.3 42.3 32% 30.12 0.0
02 16:15 NW 7 10.00 Fair CLR 74.3 42.6 32% 30.13 0.0
02 15:55 Calm 10.00 Fair CLR 74.1 41.7 31% 30.13 0.0
02 15:35 N 6 10.00 Fair CLR 73.9 42.8 33% 30.14 0.0
02 15:15 NW 5 10.00 Fair CLR 73.6 42.1 32% 30.15 0.0
02 14:55 N 8 10.00 Fair CLR 73 42.3 33% 30.15 0.0
02 14:35 NW 7 10.00 Fair CLR 73.2 42.4 33% 30.16 0.0
02 14:15 Calm 10.00 Fair CLR 72.5 40.8 32% 30.17 0.0
02 13:55 N 5 10.00 Fair CLR 72.3 43.3 35% 30.17 0.0
02 13:35 W 7 10.00 Fair CLR 71.8 40.1 32% 30.18 0.0
02 13:15 NW 8 10.00 Fair CLR 71.8 41.9 34% 30.18 0.0
02 12:55 NW 3 10.00 Fair CLR 71.6 42.4 71.6 50 35% 30.19 0.0
02 12:35 NW 7 10.00 Fair CLR 71.1 40.8 34% 30.19 0.0
02 12:15 N 3 10.00 Fair CLR 70.3 42.6 37% 30.2 0.0
02 11:55 NW 5 10.00 Fair CLR 69.8 41.4 36% 30.2 0.0
02 11:35 N 3 10.00 Fair CLR 69.6 42.6 38% 30.2 0.0
02 11:15 N 5 10.00 Fair CLR 68.5 45 43% 30.2 0.0
02 10:55 Calm 10.00 Fair CLR 67.1 50.2 55% 30.19 0.0
02 10:35 Calm 10.00 Fair CLR 65.7 48.4 54% 30.19 0.0
02 10:15 N 3 10.00 Fair CLR 65.3 50.7 59% 30.19 0.0
02 09:55 N 6 10.00 Fair CLR 63.9 49.3 59% 30.19 0.0
02 09:35 N 6 10.00 Fair CLR 62.6 48 59% 30.19 0.0
02 09:15 Calm 10.00 Fair CLR 60.8 47.8 63% 30.18 0.0
02 08:55 N 5 10.00 Fair CLR 60.1 47.1 62% 30.18 0.0
02 08:35 Calm 10.00 Fair CLR 58.5 47.8 68% 30.17 0.0
02 08:15 N 5 10.00 Fair CLR 57.2 47.7 71% 30.16 0.0
02 07:55 N 5 10.00 Fair CLR 55.2 49.1 80% 30.16 0.0
02 07:35 Calm 10.00 Fair CLR 51.8 50 94% 30.15 0.0
02 07:15 Calm 10.00 Fair CLR 50 48 93% 30.15 0.0
02 06:55 Calm 10.00 Fair CLR 53.4 47.7 57.2 52.7 81% 30.14 0.0
02 06:35 Calm 10.00 Fair CLR 53.4 48 82% 30.12 0.0
02 06:15 NW 3 10.00 Fair CLR 52.9 48.6 85% 30.12 0.0
02 05:55 Calm 10.00 Fair CLR 53.2 48.7 85% 30.11 0.0
02 05:35 Calm 10.00 Fair CLR 53.6 49.3 85% 30.11 0.0
02 05:15 NW 5 10.00 Fair CLR 53.1 50.2 90% 30.1 0.0
02 04:55 NW 3 10.00 Fair CLR 53.1 50.9 92% 30.1 0.0
02 04:35 NW 3 10.00 Fair CLR 53.2 51.3 93% 30.1 0.0
02 04:15 W 3 10.00 Fair CLR 53.6 52.2 95% 30.09 0.0
02 03:55 W 5 10.00 Fair CLR 53.8 52.3 95% 30.09 0.0
02 03:35 W 6 10.00 Fair CLR 53.2 52 96% 30.09 0.0
02 03:15 W 3 10.00 Fair CLR 53.4 51.8 94% 30.09 0.0
02 02:55 SW 3 10.00 Fair CLR 54 51.8 92% 30.09 0.0
02 02:35 W 3 10.00 Fair CLR 54.5 52 91% 30.09 0.0
02 02:15 W 3 10.00 Fair CLR 55.2 52 89% 30.1 0.0
02 01:55 Calm 10.00 Fair CLR 55.9 52 87% 30.1 0.0
02 01:35 Calm 10.00 Fair CLR 56.7 52.9 87% 30.1 0.0
02 01:15 W 3 10.00 Fair CLR 56.8 53.8 90% 30.11 0.0
02 00:55 W 5 10.00 Fair CLR 55.9 53.6 61.9 55.9 92% 30.1 0.0
02 00:35 Calm 10.00 Fair CLR 56.3 54 92% 30.1 0.0
02 00:15 Calm 10.00 Fair CLR 56.3 53.1 89% 30.1 0.0
01 23:55 Calm 10.00 Fair CLR 56.7 54 91% 30.1 0.0
01 23:35 Calm 10.00 Fair CLR 58.5 54 85% 30.1 0.0
01 23:15 NW 3 10.00 Fair CLR 58.5 54.3 86% 30.1 0.0
01 22:55 W 3 10.00 Partly Cloudy SCT080 59 54.5 85% 30.1 0.0
01 22:35 Calm 10.00 Fair CLR 58.5 54 85% 30.1 0.0
01 22:15 Calm 10.00 Fair CLR 59 53.2 81% 30.1 0.0
01 21:55 Calm 10.00 Partly Cloudy SCT120 59.2 52 77% 30.09 0.0
01 21:35 Calm 10.00 Mostly Cloudy SCT075 BKN120 59 55.2 87% 30.09 0.0
01 21:15 Calm 10.00 Overcast BKN075 OVC120 59.5 51.8 76% 30.08 0.0
01 20:55 S 3 10.00 Overcast OVC075 59.4 52.7 79% 30.07 0.0
01 20:35 SW 3 10.00 Overcast BKN075 OVC090 59.9 52.9 78% 30.06 0.0
01 20:15 Calm 10.00 Overcast BKN075 OVC090 60.4 50.7 70% 30.05 0.0
01 19:55 S 3 10.00 Overcast SCT075 OVC090 60.8 50.4 69% 30.05 0.0
01 19:35 SE 3 10.00 Overcast OVC100 61 51.6 71% 30.04 0.0
01 19:15 Calm 10.00 Overcast OVC100 61.7 51.4 69% 30.02 0.0
01 18:55 SE 3 10.00 Overcast OVC100 61.9 50.5 64.9 60.8 67% 30.02 0.0
01 18:35 Calm 10.00 Overcast OVC100 62.2 50.9 67% 30.02 0.0
01 18:15 Calm 10.00 Mostly Cloudy BKN100 BKN120 62.6 49.8 63% 30.01 0.0
01 17:55 E 3 10.00 Mostly Cloudy BKN090 63 50.4 64% 30 0.0
01 17:35 NE 3 10.00 Mostly Cloudy BKN090 64 50 60% 30 0.0
01 17:15 NE 3 10.00 Partly Cloudy SCT090 64.4 48.7 57% 30 0.0
01 16:55 E 5 10.00 Fair CLR 63.7 50 61% 29.99 0.0
01 16:35 NE 7 10.00 Partly Cloudy SCT090 64 50.2 61% 29.99 0.0
01 16:15 NE 5 10.00 Partly Cloudy SCT090 63 49.6 62% 30.01 0.0
01 15:55 E 5 10.00 Mostly Cloudy BKN090 62.2 50.2 65% 30.01 0.0
01 15:35 E 5 10.00 Overcast OVC090 62.1 48.7 62% 30.03 0.0
01 15:15 NE 6 10.00 Overcast OVC080 62.1 48.9 62% 30.02 0.0
01 14:55 NE 8 10.00 Overcast OVC080 62.1 49.3 63% 30 0.0
01 14:35 NE 12 G 16 10.00 Overcast OVC070 62.1 48.6 61% 30.01 0.0
01 14:15 NE 14 G 21 10.00 Overcast BKN070 OVC090 63.5 46.9 55% 30.01 0.0
01 13:55 NE 12 G 16 10.00 Overcast BKN070 OVC090 63.3 50.5 63% 30.02 0.0
01 13:35 NE 6 10.00 Overcast OVC070 62.2 51.4 68% 30.04 0.0
01 13:15 NE 8 G 16 10.00 Overcast OVC070 61.3 49.1 64% 30.05 0.0
01 12:55 NE 12 10.00 Overcast OVC070 60.8 47.5 61.5 54.7 62% 30.06 0.0
01 12:35 NE 9 10.00 Overcast OVC070 60.4 50.9 71% 30.06 0.0
01 12:15 NE 7 10.00 Overcast OVC070 59.7 52.3 77% 30.08 0.0
01 11:55 NE 7 10.00 Overcast OVC070 58.1 52 80% 30.08 0.0
01 11:35 NE 5 10.00 Overcast BKN075 OVC080 57.7 52.5 83% 30.08 0.0
01 11:15 E 6 10.00 Mostly Cloudy SCT075 BKN110 57.2 52.9 86% 30.09 0.0
01 10:55 NE 5 10.00 Mostly Cloudy SCT038 SCT070 BKN110 57.2 52.9 86% 30.09 0.0
01 10:35 NE 3 10.00 Overcast SCT038 BKN070 OVC090 57.6 53.6 87% 30.09 0.0
01 10:15 NE 6 10.00 Overcast BKN070 BKN080 OVC100 57 52.5 85% 30.08 0.0
01 09:55 E 6 10.00 Overcast OVC075 56.8 53.1 87% 30.07 0.0
01 09:35 NE 6 10.00 Overcast OVC075 56.1 52 86% 30.06 0.0
01 09:15 NE 6 10.00 Overcast OVC075 55.8 52 87% 30.07 0.0
01 08:55 NE 5 10.00 Overcast OVC065 55.2 50.7 85% 30.08 0.0
01 08:35 NE 5 10.00 Overcast OVC065 54.9 50.9 87% 30.08 0.0
01 08:15 Calm 10.00 Overcast OVC065 54.7 50 84% 30.07 0.0
01 07:55 NE 6 10.00 Overcast OVC065 54.7 50.2 85% 30.04 0.0
01 07:35 NE 5 10.00 Overcast OVC065 54.9 50.5 85% 30.04 0.0
01 07:15 NE 6 10.00 Overcast OVC055 54.9 51.1 87% 30.03 0.0
01 06:55 NE 5 10.00 Overcast OVC055 55.4 53.1 58.5 55 92% 30.04 0.0 0.01
01 06:35 N 5 10.00 Overcast OVC055 55.4 52.7 91% 30.03 0.0
01 06:15 N 5 10.00 Overcast OVC055 55.4 53.1 92% 30.02 0.0
01 05:55 NE 3 7.00 Overcast SCT055 BKN070 OVC090 55.2 52.7 91% 30.02 0.0
01 05:35 NE 5 10.00 Overcast BKN080 BKN090 OVC120 55.8 52.9 90% 30.01 0.0
01 05:15 NE 5 10.00 Overcast SCT090 OVC110 55.6 52.9 91% 30.02 0.0
01 04:55 NE 5 10.00 Overcast SCT050 SCT080 OVC110 55.9 52.7 89% 30.02 0.0 0.01
01 04:35 E 6 10.00 Overcast SCT050 OVC100 56.3 54 92% 30.02 0.0
01 04:15 NE 5 10.00 Overcast OVC050 56.7 55.6 96% 30.01 0.0
01 03:55 NE 6 10.00 Overcast OVC050 57.2 55.8 95% 30.01 0.0
01 03:35 NE 3 10.00 Overcast OVC050 57.2 55.8 95% 30.01 0.0
01 03:15 N 5 10.00 Overcast OVC050 57.4 56.3 96% 30.03 0.0
01 02:55 NE 6 10.00 Overcast OVC048 57.4 56.3 96% 30.01 0.0
01 02:35 NE 6 10.00 Overcast OVC046 58.1 56.7 95% 30.02 0.0
01 02:15 NE 6 10.00 Overcast OVC044 58.1 56.5 94% 30.03 0.0
01 01:55 N 8 10.00 Overcast OVC044 58.3 56.8 95% 30.04 0.0
01 01:35 NE 5 10.00 Overcast OVC044 58.3 56.5 94% 30.04 0.0
01 01:15 NE 5 10.00 Overcast OVC044 58.5 56.3 93% 30.04 0.0
01 00:55 Calm 10.00 Overcast OVC046 58.5 56.3 62.1 58.5 93% 30.05 0.0 0.01
01 00:35 Calm 10.00 Overcast OVC044 58.6 55.8 90% 30.04 0.0
01 00:15 Calm 10.00 Overcast OVC042 58.8 55.6 89% 30.05 0.0
30 23:55 Calm 10.00 Overcast OVC042 58.5 55 88% 30.03 0.0
30 23:35 E 6 10.00 Overcast OVC042 58.5 55 88% 30.03 0.0
30 23:15 NE 7 10.00 Overcast OVC042 59 55 87% 30.03 0.0
30 22:55 NE 7 10.00 Overcast OVC042 58.8 55.4 89% 30.04 0.0
30 22:35 NE 7 10.00 Overcast OVC042 59 56.3 91% 30.03 0.0
30 22:15 NE 5 7.00 Overcast OVC042 59 56.5 91% 30.03 0.0
30 21:55 NE 6 7.00 Overcast OVC042 60.1 56.3 87% 30.04 0.0
30 21:35 NE 3 10.00 Overcast OVC038 60.1 55.4 85% 30.03 0.0
30 21:15 NE 5 10.00 Overcast OVC036 60.4 55.4 84% 30 0.0
30 20:55 Calm 10.00 Overcast OVC040 61 54.3 79% 30.01 0.0
30 20:35 NE 5 10.00 Overcast OVC040 61.2 53.8 77% 29.99 0.0
30 20:15 NE 6 10.00 Overcast OVC040 61.2 53.8 77% 29.99 0.0
30 19:55 NE 3 10.00 Overcast OVC042 61.7 53.4 74% 29.98 0.0
30 19:35 NE 7 10.00 Mostly Cloudy BKN042 BKN120 61.7 54.3 77% 29.97 0.0
30 19:15 NE 6 10.00 Partly Cloudy SCT044 SCT120 62.1 54.9 77% 29.96 0.0
30 18:35 NE 7 10.00 Fair CLR 62.6 54.9 76% 29.95 0.0
30 18:15 NE 5 10.00 Partly Cloudy SCT075 62.6 54.7 75% 29.96 0.0
30 17:55 NE 7 10.00 Mostly Cloudy SCT049 BKN075 63 54.7 75% 29.96 0.0
30 17:35 NE 6 10.00 Overcast BKN049 OVC075 63 54.9 75% 29.97 0.0
30 17:15 NE 5 10.00 Overcast OVC049 62.6 54 74% 29.98 0.0
30 16:55 NE 6 10.00 Overcast OVC049 63 53.8 72% 29.96 0.0
30 16:35 NE 5 10.00 Overcast OVC049 63.1 53.8 72% 29.96 0.0
30 16:15 E 8 10.00 Overcast OVC049 63 54 73% 29.95 0.0
30 15:55 E 8 10.00 Mostly Cloudy BKN049 63 54 73% 29.97 0.0
30 15:35 E 8 10.00 Partly Cloudy SCT049 62.2 54.5 76% 29.96 0.0
30 15:15 E 12 10.00 Partly Cloudy SCT046 62.2 54.1 75% 29.95 0.0
30 14:55 NE 12 10.00 Overcast OVC046 62.2 54.3 75% 29.96 0.0
30 14:35 NE 7 10.00 Overcast OVC044 62.1 53.6 74% 29.97 0.0
30 14:15 NE 7 10.00 Overcast OVC044 62.1 54 75% 29.98 0.0
30 13:55 NE 8 10.00 Overcast OVC044 62.1 53.8 74% 29.97 0.0
30 13:35 NE 9 10.00 Overcast OVC044 63 54.1 73% 29.98 0.0
30 13:15 E 6 7.00 Overcast SCT041 OVC047 63 54 73% 30.01 0.0
30 12:55 NE 8 10.00 Mostly Cloudy SCT041 BKN049 62.8 54.1 63.5 59 74% 30.02 0.0
30 12:35 NE 6 10.00 Overcast BKN039 OVC049 63.5 54.1 72% 30.03 0.0
30 12:15 E 5 10.00 Overcast OVC039 62.8 54 73% 30.05 0.0
30 11:55 E 6 10.00 Overcast OVC037 62.6 53.2 72% 30.05 0.0
30 11:35 NE 8 10.00 Overcast BKN037 OVC050 62.8 53.4 72% 30.03 0.0
30 11:15 NE 12 10.00 Mostly Cloudy BKN050 63.1 53.8 72% 30.01 0.0
30 10:55 NE 10 G 17 10.00 Partly Cloudy SCT050 63 54.7 75% 30.01 0.0
30 10:35 E 10 10.00 Partly Cloudy SCT036 63 55.9 78% 30.01 0.0
30 10:15 NE 9 G 13 10.00 Mostly Cloudy BKN034 61.9 55.6 80% 30 0.0
30 09:55 E 12 G 16 10.00 Mostly Cloudy BKN034 61.7 55.8 81% 29.99 0.0
30 09:35 E 13 G 20 10.00 Mostly Cloudy SCT015 BKN034 61.7 55.6 80% 29.99 0.0
30 09:15 E 16 G 22 10.00 Mostly Cloudy SCT015 BKN034 62.4 57 83% 29.99 0.0
30 08:55 E 14 G 18 10.00 Overcast SCT015 OVC034 61.5 57.2 86% 29.99 0.0
30 08:35 NE 10 G 20 10.00 Mostly Cloudy BKN034 61.3 57.4 87% 29.99 0.0
30 08:15 NE 8 10.00 Fair CLR 61.2 58.1 90% 30 0.0
30 07:55 NE 6 10.00 Fair CLR 59.9 59 97% 30 0.0
30 07:35 NE 7 10.00 Partly Cloudy SCT007 SCT014 59.2 59.2 100% 29.98 0.0
30 07:15 NE 5 10.00 Overcast SCT007 OVC014 59.2 59.2 100% 29.97 0.0
30 06:55 NE 5 7.00 Mostly Cloudy SCT009 BKN014 59 59 61.9 58.6 100% 29.97 0.0
30 06:35 NE 6 10.00 Fair CLR 58.6 58.6 100% 29.97 0.0
30 06:15 NE 5 10.00 Partly Cloudy SCT070 59 59 100% 29.97 0.0
30 05:55 NE 5 10.00 Mostly Cloudy BKN070 59 59 100% 29.98 0.0
30 05:35 NE 5 10.00 Mostly Cloudy BKN070 59 59 100% 29.98 0.0
30 05:15 NE 5 10.00 Fair CLR 59 58.6 99% 29.98 0.0
30 04:55 NE 7 10.00 Fair CLR 59.4 59 99% 29.97 0.0
30 04:35 NE 8 10.00 Partly Cloudy SCT070 59.5 59.2 99% 29.98 0.0
30 04:15 NE 7 10.00 Partly Cloudy SCT080 59.4 59 99% 29.97 0.0
30 03:55 NE 6 10.00 Partly Cloudy SCT013 SCT080 59.9 59.4 98% 29.96 0.0
30 03:35 NE 5 10.00 Mostly Cloudy SCT008 BKN015 BKN080 60.1 59.9 99% 29.98 0.0
30 03:15 NE 5 10.00 Overcast SCT013 SCT050 OVC080 60.4 60.1 99% 29.98 0.0
30 02:55 E 5 10.00 Overcast SCT011 BKN050 OVC080 60.8 60.3 98% 29.98 0.0
30 02:35 NE 6 10.00 Overcast BKN016 BKN050 OVC060 61.2 60.3 97% 29.98 0.0
30 02:15 E 7 10.00 Overcast SCT018 BKN050 OVC060 61.3 60.1 96% 29.99 0.0
30 01:55 E 9 10.00 Overcast SCT011 OVC018 61.3 60.3 96% 29.99 0.0
30 01:35 NE 7 10.00 Overcast BKN012 OVC017 61.7 61 98% 30 0.0
30 01:15 NE 3 10.00 Overcast SCT013 BKN047 OVC060 61.9 60.8 96% 30 0.0
30 00:55 NE 7 10.00 Overcast BKN045 OVC060 61.9 60.3 63.7 61.9 94% 30 0.0
30 00:35 E 8 10.00 Overcast BKN043 OVC050 61.9 60.3 94% 29.99 0.0
30 00:15 E 7 10.00 Overcast BKN043 OVC050 62.6 61 94% 30.01 0.0
29 23:55 NE 7 10.00 Overcast OVC043 62.8 61.9 97% 30 0.0
29 23:35 Calm 10.00 Overcast BKN041 OVC055 63 62.1 97% 30 0.0
29 23:15 NE 6 7.00 Thunderstorm in Vicinity BKN039 OVC050 63.5 62.1 95% 29.99 0.0
29 22:55 NE 5 10.00 Overcast OVC039 63.5 62.1 95% 29.99 0.0
29 22:35 NE 7 10.00 Overcast SCT031 OVC039 63.5 62.4 96% 30 0.0
29 22:15 NE 5 10.00 Overcast OVC037 63.5 62.6 97% 30 0.0
29 21:55 NE 3 10.00 Overcast SCT020 SCT027 OVC037 63.5 62.8 98% 29.99 0.0
29 21:35 N 7 10.00 Overcast BKN018 BKN027 OVC033 63.7 63.1 98% 29.99 0.0
29 21:15 N 6 10.00 Overcast SCT018 BKN027 OVC031 63.5 63 98% 29.96 0.0
29 20:55 NE 7 10.00 Overcast SCT025 OVC031 63.5 62.8 98% 29.94 0.0
29 20:35 N 6 10.00 Overcast SCT023 OVC031 63.5 62.6 97% 29.94 0.0
29 20:15 N 5 10.00 Overcast SCT023 OVC031 63.1 62.6 98% 29.94 0.0
29 19:55 NE 6 10.00 Overcast SCT025 OVC031 63.5 62.2 96% 29.94 0.0
29 19:35 N 7 10.00 Overcast BKN029 OVC075 63.5 62.2 96% 29.95 0.0
29 19:15 NE 5 10.00 Mostly Cloudy BKN075 BKN095 63.5 61.9 95% 29.93 0.0
29 18:55 N 7 10.00 Mostly Cloudy SCT022 BKN027 BKN095 63.5 61.9 65.7 63.1 95% 29.93 0.0 0.03
29 18:35 N 8 10.00 Overcast SCT016 OVC024 63.9 62.1 94% 29.94 0.0
29 18:15 N 12 10.00 Overcast OVC013 64.4 61.9 92% 29.94 0.0
29 17:55 N 10 10.00 Overcast BKN013 OVC022 64.8 62.1 91% 29.92 0.0
29 17:35 NE 6 10.00 Overcast SCT013 OVC022 65.3 62.4 90% 29.9 0.0
Date Time (cdt) Wind (mph) Vis. (mi.) Weather Sky Cond. Air Dwpt Max. Min. Relative Humidity Wind Chill (°F) Heat Index (°F) altimeter (in) sea level (mb) 1 hr 3 hr 6 hr
6 hour
Temperature (ºF) Pressure Precipitation (in)